This is the latest recevied weather packets stored in our database for station/object ZB2YN-13. If no packets are shown the sender has not sent any weather packets the latest 10 day(s).
| Time | Temp. | Humidity | Pressure | Rain* | Wind** | Luminosity | Snow |
|---|---|---|---|---|---|---|---|
| 1787623206 | 21.11° C | 87% | 1009.1 hPa | 0 mm | - | - | - |
| 1787619605 | 21.67° C | 85% | 1009.5 hPa | 0 mm | - | - | - |
| 1787616006 | 22.22° C | 80% | 1009.9 hPa | 0 mm | - | - | - |
| 1787612406 | 22.22° C | 83% | 1010.2 hPa | 0 mm | - | - | - |
| 1787608806 | 22.78° C | 81% | 1010.4 hPa | 0 mm | - | - | - |
| 1787605205 | 23.89° C | 76% | 1010.5 hPa | 0 mm | - | - | - |
| 1787601605 | 24.44° C | 74% | 1009.6 hPa | 0 mm | - | - | - |
| 1787598006 | 25° C | 71% | 1009 hPa | 0 mm | - | - | - |
| 1787594406 | 26.67° C | 64% | 1009 hPa | 0 mm | - | - | - |
| 1787590805 | 27.22° C | 58% | 1008.9 hPa | 0 mm | - | - | - |
| 1787587205 | 28.89° C | 58% | 1009 hPa | 0 mm | - | - | - |
| 1787583605 | 28.33° C | 60% | 1009.2 hPa | 0 mm | - | - | - |
| 1787580005 | 28.33° C | 66% | 1009.5 hPa | 0 mm | - | - | - |
| 1787576406 | 27.22° C | 67% | 1009.9 hPa | 0 mm | - | - | - |
| 1787572806 | 26.11° C | 73% | 1009.8 hPa | 0 mm | - | - | - |
| 1787569205 | 25.56° C | 75% | 1010.3 hPa | 0 mm | - | - | - |
| 1787565605 | 23.33° C | 81% | 1010.2 hPa | 0 mm | - | - | - |
| 1787562005 | 23.89° C | 77% | 1009.8 hPa | 0 mm | - | - | - |
| 1787558406 | 23.33° C | 79% | 1009 hPa | 0 mm | - | - | - |
| 1787554805 | 22.22° C | 83% | 1008.8 hPa | 0 mm | - | - | - |
| 1787551205 | 21.67° C | 84% | 1008.1 hPa | 0 mm | - | - | - |
| 1787547605 | 21.11° C | 84% | 1008 hPa | 0 mm | - | - | - |
| 1787544006 | 21.11° C | 83% | 1007.9 hPa | 0 mm | - | - | - |
| 1787540406 | 21.11° C | 83% | 1007.7 hPa | 0 mm | - | - | - |
| 1787536805 | 21.67° C | 83% | 1008.1 hPa | 0 mm | - | - | - |
* Rain latest hour (hover to see other rain measurements)
** Current wind speed in m/s (hover to see current wind gust speed)